Time;durP1;ratioP1;P1;durP2;ratioP2;P2;SDS_P1;SDS_P2;PMS_P1;PMS_P2;Temp;Humidity;BMP_temperature;BMP_pressure;BME280_temperature;BME280_humidity;BME280_pressure;Samples;Min_cycle;Max_cycle;Signal;HPM_P1;HPM_P2
2023/01/20 00:01:29;;;;;;;14.02;12.52;;;1.10;99.90;;;;;;4917509;29;20226;-71
2023/01/20 00:03:58;;;;;;;14.32;12.40;;;1.10;99.90;;;;;;4934904;29;20326;-70
2023/01/20 00:06:27;;;;;;;14.25;12.77;;;1.00;99.90;;;;;;4933480;29;20217;-71
2023/01/20 00:08:55;;;;;;;13.93;12.45;;;1.00;99.90;;;;;;4933682;29;20545;-70
2023/01/20 00:11:23;;;;;;;14.13;12.68;;;0.90;99.90;;;;;;4933733;29;21665;-70
2023/01/20 00:13:53;;;;;;;14.40;12.23;;;0.90;99.90;;;;;;4934188;29;20208;-70
2023/01/20 00:16:20;;;;;;;13.27;12.02;;;0.90;99.90;;;;;;4934305;29;20225;-71
2023/01/20 00:18:47;;;;;;;12.75;11.55;;;0.80;99.90;;;;;;4927098;29;20202;-68
2023/01/20 00:21:16;;;;;;;13.88;12.50;;;0.80;99.90;;;;;;4918253;29;20586;-69
2023/01/20 00:23:44;;;;;;;14.20;12.80;;;0.70;99.90;;;;;;4915312;29;20656;-69
2023/01/20 00:26:14;;;;;;;13.57;12.27;;;0.70;99.90;;;;;;4914982;29;20234;-69
2023/01/20 00:28:42;;;;;;;14.85;13.40;;;0.60;99.90;;;;;;4916750;29;20217;-69
2023/01/20 00:31:13;;;;;;;13.85;12.50;;;0.50;99.90;;;;;;4924067;29;20289;-69
2023/01/20 00:33:41;;;;;;;15.55;12.60;;;0.40;99.90;;;;;;4933034;29;20243;-70
2023/01/20 00:36:09;;;;;;;14.50;13.10;;;0.40;99.90;;;;;;4932678;29;20250;-70
2023/01/20 00:38:38;;;;;;;15.07;13.27;;;0.40;99.90;;;;;;4933248;29;20206;-69
2023/01/20 00:41:05;;;;;;;14.07;12.40;;;0.40;99.90;;;;;;4931829;29;20236;-70
2023/01/20 00:43:32;;;;;;;14.60;13.05;;;0.50;99.90;;;;;;4916280;29;20197;-70
2023/01/20 00:45:59;;;;;;;14.93;13.43;;;0.50;99.90;;;;;;4915231;29;20221;-70
2023/01/20 00:48:26;;;;;;;14.90;13.40;;;0.40;99.90;;;;;;4914864;29;20292;-70
2023/01/20 00:50:53;;;;;;;15.70;14.02;;;0.40;99.90;;;;;;4927899;29;20205;-70
2023/01/20 00:53:20;;;;;;;14.95;13.45;;;0.40;99.90;;;;;;4933438;29;20252;-70
2023/01/20 00:55:48;;;;;;;13.10;11.80;;;0.30;99.90;;;;;;4914541;29;20222;-70
2023/01/20 00:58:16;;;;;;;15.90;14.30;;;0.30;99.90;;;;;;4925461;29;20201;-70
2023/01/20 01:00:43;;;;;;;15.25;13.75;;;0.30;99.90;;;;;;4935612;29;20296;-70
2023/01/20 01:03:10;;;;;;;14.85;13.35;;;0.30;99.90;;;;;;4935486;29;20237;-70
2023/01/20 01:05:37;;;;;;;13.95;12.55;;;0.40;99.90;;;;;;4937812;29;20227;-69
2023/01/20 01:08:04;;;;;;;14.75;13.15;;;0.40;99.90;;;;;;4931444;29;20249;-70
2023/01/20 01:10:32;;;;;;;15.30;13.82;;;0.40;99.90;;;;;;4918832;29;20236;-70
2023/01/20 01:13:01;;;;;;;15.35;13.85;;;0.40;99.90;;;;;;4920181;29;20292;-69
2023/01/20 01:15:29;;;;;;;15.05;13.40;;;0.40;99.90;;;;;;4924004;29;20225;-70
2023/01/20 01:17:57;;;;;;;14.95;13.35;;;0.40;99.90;;;;;;4926496;29;20257;-69
2023/01/20 01:20:25;;;;;;;14.95;12.80;;;0.40;99.90;;;;;;4918274;29;20214;-70
2023/01/20 01:22:52;;;;;;;15.05;13.55;;;0.40;99.90;;;;;;4931299;29;20241;-69
2023/01/20 01:25:19;;;;;;;14.05;12.75;;;0.40;99.90;;;;;;4937723;29;20225;-70
2023/01/20 01:27:46;;;;;;;14.75;13.30;;;0.50;99.90;;;;;;4937200;29;20676;-70
2023/01/20 01:30:15;;;;;;;15.00;13.50;;;0.50;99.90;;;;;;4936570;29;20255;-70
2023/01/20 01:32:42;;;;;;;14.40;12.98;;;0.60;99.90;;;;;;4936630;29;20218;-69
2023/01/20 01:35:09;;;;;;;14.40;12.20;;;0.60;99.90;;;;;;4928948;29;20574;-70
2023/01/20 01:37:36;;;;;;;16.05;14.50;;;0.70;99.90;;;;;;4918240;29;20218;-70
2023/01/20 01:40:03;;;;;;;15.80;14.20;;;0.70;99.90;;;;;;4918337;29;20206;-70
2023/01/20 01:42:30;;;;;;;15.13;13.43;;;0.70;99.90;;;;;;4918190;29;20275;-69
2023/01/20 01:45:22;;;;;;;14.55;13.15;;;0.80;99.90;;;;;;4925858;29;20316;-70
2023/01/20 01:47:54;;;;;;;14.63;13.23;;;0.90;99.90;;;;;;4932775;29;20209;-70
2023/01/20 01:50:26;;;;;;;15.63;13.98;;;0.90;99.90;;;;;;4918137;29;20292;-70
2023/01/20 01:52:54;;;;;;;14.30;12.93;;;0.90;99.90;;;;;;4918110;29;20216;-70
2023/01/20 01:55:24;;;;;;;14.75;13.35;;;1.00;99.90;;;;;;4917840;29;20230;-70
2023/01/20 01:57:52;;;;;;;14.60;13.30;;;1.10;99.90;;;;;;4919482;29;20317;-70
2023/01/20 02:00:21;;;;;;;15.07;12.80;;;1.20;99.90;;;;;;4936949;29;20293;-70
2023/01/20 02:02:48;;;;;;;13.68;12.25;;;1.20;99.90;;;;;;4922059;29;20352;-70
2023/01/20 02:05:17;;;;;;;14.50;12.95;;;1.30;99.90;;;;;;4917833;29;20699;-69
2023/01/20 02:07:47;;;;;;;14.50;12.82;;;1.30;99.90;;;;;;4919159;29;20210;-69
2023/01/20 02:10:14;;;;;;;17.35;14.68;;;1.40;99.90;;;;;;4917950;29;20804;-69
2023/01/20 02:12:43;;;;;;;13.85;12.07;;;1.40;99.90;;;;;;4926733;29;20208;-70
2023/01/20 02:15:10;;;;;;;14.10;12.80;;;1.40;99.90;;;;;;4934339;29;20276;-69
2023/01/20 02:17:48;;;;;;;13.48;12.13;;;1.40;99.90;;;;;;4936400;29;20208;-70
2023/01/20 02:20:36;;;;;;;15.10;12.43;;;1.40;99.90;;;;;;4918403;29;20206;-69
2023/01/20 02:23:09;;;;;;;13.13;11.93;;;1.40;99.90;;;;;;4917398;29;20233;-69
2023/01/20 02:26:00;;;;;;;13.13;11.82;;;1.40;99.90;;;;;;4922880;29;20225;-70
2023/01/20 02:28:50;;;;;;;15.27;13.43;;;1.40;99.90;;;;;;4920042;29;20257;-70
2023/01/20 02:31:55;;;;;;;13.43;11.52;;;1.50;99.90;;;;;;4936383;29;20256;-70
2023/01/20 02:34:30;;;;;;;12.95;11.55;;;1.50;99.90;;;;;;4936171;29;20686;-70
2023/01/20 02:37:01;;;;;;;13.85;12.45;;;1.50;99.90;;;;;;4934643;29;21167;-69
2023/01/20 02:39:32;;;;;;;12.80;11.27;;;1.50;99.90;;;;;;4924401;29;20229;-70
2023/01/20 02:42:05;;;;;;;13.45;12.05;;;1.50;99.90;;;;;;4932390;29;20222;-70
2023/01/20 02:44:39;;;;;;;13.20;11.90;;;1.50;99.90;;;;;;4916529;29;20673;-70
2023/01/20 02:47:12;;;;;;;13.15;11.75;;;1.50;99.90;;;;;;4916743;29;20210;-70
2023/01/20 02:49:50;;;;;;;13.23;11.98;;;1.50;99.90;;;;;;4920172;29;20281;-70
2023/01/20 02:52:22;;;;;;;13.95;12.55;;;1.50;99.90;;;;;;4933183;29;20212;-70
2023/01/20 02:54:51;;;;;;;14.10;12.65;;;1.50;99.90;;;;;;4935391;29;20231;-70
2023/01/20 02:57:23;;;;;;;15.07;13.65;;;1.50;99.90;;;;;;4917255;29;20200;-70
2023/01/20 02:59:54;;;;;;;14.10;12.85;;;1.50;99.90;;;;;;4916861;29;20636;-69
2023/01/20 03:02:25;;;;;;;14.02;12.63;;;1.40;99.90;;;;;;4925294;29;20214;-70
2023/01/20 03:05:01;;;;;;;14.90;13.38;;;1.40;99.90;;;;;;4935390;29;20226;-69
2023/01/20 03:07:31;;;;;;;16.63;15.02;;;1.50;99.90;;;;;;4933201;29;20298;-69
2023/01/20 03:10:02;;;;;;;14.70;13.30;;;1.40;99.90;;;;;;4922907;29;20203;-70
2023/01/20 03:12:35;;;;;;;15.10;13.55;;;1.30;99.90;;;;;;4916581;29;20213;-69
2023/01/20 03:15:02;;;;;;;15.18;13.77;;;1.30;99.90;;;;;;4928918;29;20689;-69
2023/01/20 03:17:29;;;;;;;15.57;14.00;;;1.30;99.90;;;;;;4927070;29;20570;-70
2023/01/20 03:19:58;;;;;;;15.88;14.27;;;1.30;99.90;;;;;;4935172;29;20215;-70
2023/01/20 03:22:43;;;;;;;14.35;13.05;;;1.30;99.90;;;;;;4906868;29;20234;-70
2023/01/20 03:25:11;;;;;;;14.85;13.30;;;1.30;99.90;;;;;;4916519;29;20258;-69
2023/01/20 03:27:37;;;;;;;13.23;12.02;;;1.30;99.90;;;;;;4923831;29;20291;-69
2023/01/20 03:30:11;;;;;;;13.02;11.75;;;1.30;99.90;;;;;;4934297;29;20662;-70
2023/01/20 03:32:40;;;;;;;13.98;12.48;;;1.30;99.90;;;;;;4916411;29;20201;-69
2023/01/20 03:35:10;;;;;;;12.93;11.68;;;1.30;99.90;;;;;;4915894;29;20782;-69
2023/01/20 03:37:37;;;;;;;14.35;13.05;;;1.30;99.90;;;;;;4931154;29;20206;-70
2023/01/20 03:40:06;;;;;;;14.00;12.65;;;1.30;99.90;;;;;;4934986;29;20617;-70
2023/01/20 03:42:39;;;;;;;13.90;12.45;;;1.30;99.90;;;;;;4934288;29;20256;-70
2023/01/20 03:45:10;;;;;;;13.93;12.52;;;1.30;99.90;;;;;;4932284;29;20310;-70
2023/01/20 03:47:50;;;;;;;13.15;11.95;;;1.30;99.90;;;;;;4934035;29;20646;-69
2023/01/20 03:50:31;;;;;;;14.02;12.63;;;1.20;99.90;;;;;;4924432;29;20194;-69
2023/01/20 03:53:04;;;;;;;13.80;12.40;;;1.20;99.90;;;;;;4929932;29;20201;-69
2023/01/20 03:55:36;;;;;;;13.48;11.20;;;1.10;99.90;;;;;;4934626;29;20276;-69
2023/01/20 03:58:07;;;;;;;11.80;10.60;;;1.10;99.90;;;;;;4928582;29;20615;-70
2023/01/20 04:00:38;;;;;;;11.50;10.32;;;1.10;99.90;;;;;;4914524;29;20241;-70
2023/01/20 04:03:07;;;;;;;11.20;9.98;;;1.00;99.90;;;;;;4920640;29;20451;-69
2023/01/20 04:05:37;;;;;;;12.13;10.90;;;1.00;99.90;;;;;;4932941;29;20231;-70
2023/01/20 04:08:08;;;;;;;11.93;10.82;;;1.00;99.90;;;;;;4932443;29;20201;-69
2023/01/20 04:10:38;;;;;;;11.82;10.70;;;0.90;99.90;;;;;;4934656;29;20220;-69
2023/01/20 04:13:05;;;;;;;12.23;11.02;;;0.80;99.90;;;;;;4932932;29;20229;-69
2023/01/20 04:15:37;;;;;;;12.20;11.00;;;0.80;99.90;;;;;;4934360;29;20316;-69
2023/01/20 04:18:15;;;;;;;13.27;11.82;;;0.70;99.90;;;;;;4933142;29;20204;-69
2023/01/20 04:20:44;;;;;;;12.50;11.40;;;0.70;99.90;;;;;;4925541;29;20334;-70
2023/01/20 04:23:19;;;;;;;12.73;11.50;;;0.60;99.90;;;;;;4915038;29;20789;-68
2023/01/20 04:25:46;;;;;;;12.95;11.70;;;0.50;99.90;;;;;;4921678;29;20220;-68
2023/01/20 04:28:13;;;;;;;12.95;11.65;;;0.50;99.90;;;;;;4934242;29;20228;-69
2023/01/20 04:30:40;;;;;;;14.55;13.15;;;0.50;99.90;;;;;;4922960;29;20651;-69
2023/01/20 04:33:07;;;;;;;13.63;12.23;;;0.50;99.90;;;;;;4925998;29;20197;-69
2023/01/20 04:35:34;;;;;;;13.85;12.45;;;0.50;99.90;;;;;;4933027;29;20228;-69
2023/01/20 04:38:03;;;;;;;12.63;11.32;;;0.50;99.90;;;;;;4934155;29;20665;-69
2023/01/20 04:40:29;;;;;;;13.32;12.02;;;0.50;99.90;;;;;;4929023;29;20197;-69
2023/01/20 04:42:57;;;;;;;13.13;11.75;;;0.50;99.90;;;;;;4930423;29;20324;-69
2023/01/20 04:45:24;;;;;;;13.52;12.18;;;0.60;99.90;;;;;;4934163;29;20226;-69
2023/01/20 04:47:51;;;;;;;12.55;11.35;;;0.60;99.90;;;;;;4931377;29;20655;-69
2023/01/20 04:50:18;;;;;;;15.63;11.52;;;0.70;99.90;;;;;;4923058;29;20252;-69
2023/01/20 04:52:45;;;;;;;14.88;13.38;;;0.70;99.90;;;;;;4933164;29;20609;-69
2023/01/20 04:55:13;;;;;;;15.38;12.13;;;0.60;99.90;;;;;;4932537;29;20227;-69
2023/01/20 04:57:41;;;;;;;12.70;11.50;;;0.60;99.90;;;;;;4916836;29;20201;-69
2023/01/20 05:00:09;;;;;;;14.27;12.23;;;0.70;99.90;;;;;;4915264;29;20273;-69
2023/01/20 05:02:35;;;;;;;14.77;11.82;;;0.70;99.90;;;;;;4925894;29;20373;-69
2023/01/20 05:05:03;;;;;;;11.88;10.68;;;0.70;99.90;;;;;;4929959;29;20220;-69
2023/01/20 05:07:30;;;;;;;13.98;12.57;;;0.70;99.90;;;;;;4933779;29;20241;-69
2023/01/20 05:09:56;;;;;;;13.52;12.23;;;0.70;99.90;;;;;;4924310;29;20663;-69
2023/01/20 05:12:25;;;;;;;13.63;12.18;;;0.80;99.90;;;;;;4915167;29;20727;-69
2023/01/20 05:14:52;;;;;;;12.98;11.57;;;0.90;99.90;;;;;;4925917;29;20570;-69
2023/01/20 05:17:19;;;;;;;12.65;11.55;;;0.90;99.90;;;;;;4918543;29;21074;-73
2023/01/20 05:19:46;;;;;;;12.52;11.43;;;0.90;99.90;;;;;;4926871;29;20656;-70
2023/01/20 05:22:13;;;;;;;12.25;11.13;;;0.90;99.90;;;;;;4923024;29;20203;-70
2023/01/20 05:24:40;;;;;;;12.30;11.05;;;1.00;99.90;;;;;;4921192;29;20225;-70
2023/01/20 05:27:07;;;;;;;13.45;12.15;;;1.00;99.90;;;;;;4924359;29;20229;-69
2023/01/20 05:29:35;;;;;;;11.48;10.32;;;1.00;99.90;;;;;;4931741;29;20234;-70
2023/01/20 05:32:02;;;;;;;12.48;10.63;;;1.00;99.90;;;;;;4913854;29;20207;-69
2023/01/20 05:34:29;;;;;;;11.43;10.30;;;1.00;99.90;;;;;;4918415;29;20284;-69
2023/01/20 05:36:56;;;;;;;12.55;10.75;;;1.00;99.90;;;;;;4925052;29;20202;-70
2023/01/20 05:39:23;;;;;;;14.82;11.35;;;1.00;99.90;;;;;;4931776;29;20640;-69
2023/01/20 05:41:50;;;;;;;12.60;11.30;;;1.10;99.90;;;;;;4928059;29;20663;-69
2023/01/20 05:44:17;;;;;;;12.45;11.20;;;1.00;99.90;;;;;;4932007;29;20285;-70
2023/01/20 05:46:45;;;;;;;14.00;11.35;;;1.00;99.90;;;;;;4917958;29;20305;-69
2023/01/20 05:49:13;;;;;;;12.95;11.38;;;0.90;99.90;;;;;;4923269;29;20721;-69
2023/01/20 05:51:39;;;;;;;12.43;10.10;;;0.90;99.90;;;;;;4925774;29;20285;-68
2023/01/20 05:54:06;;;;;;;12.05;10.85;;;1.00;99.90;;;;;;4925995;29;20236;-68
2023/01/20 05:56:33;;;;;;;10.63;9.63;;;1.50;99.90;;;;;;4927651;29;20215;-69
2023/01/20 05:59:00;;;;;;;9.50;8.50;;;1.90;99.90;;;;;;4929913;29;20257;-69
2023/01/20 06:01:27;;;;;;;10.55;9.55;;;2.20;99.90;;;;;;4935689;29;20208;-69
2023/01/20 06:03:56;;;;;;;10.35;9.45;;;2.40;99.90;;;;;;4935695;29;20581;-69
2023/01/20 06:06:23;;;;;;;11.30;10.20;;;2.70;99.90;;;;;;4922507;29;20310;-69
2023/01/20 06:08:52;;;;;;;10.43;9.40;;;3.00;99.90;;;;;;4922094;29;20193;-69
2023/01/20 06:11:19;;;;;;;10.60;9.60;;;3.00;99.90;;;;;;4936869;29;20234;-69
2023/01/20 06:13:47;;;;;;;10.13;9.20;;;3.20;99.90;;;;;;4930672;29;20291;-69
2023/01/20 06:16:15;;;;;;;9.82;9.02;;;3.50;99.90;;;;;;4930907;29;20640;-69
2023/01/20 06:18:43;;;;;;;9.85;8.85;;;3.60;99.90;;;;;;4917501;29;20237;-69
2023/01/20 06:21:11;;;;;;;10.02;9.02;;;3.90;99.90;;;;;;4934232;29;20201;-69
2023/01/20 06:23:38;;;;;;;9.23;8.43;;;3.90;99.90;;;;;;4934842;29;20251;-69
2023/01/20 06:26:07;;;;;;;10.20;9.15;;;3.90;99.90;;;;;;4928203;29;20612;-70
2023/01/20 06:28:34;;;;;;;11.35;10.18;;;3.90;99.90;;;;;;4930463;29;20202;-71
2023/01/20 06:31:03;;;;;;;12.32;9.98;;;3.70;99.90;;;;;;4925607;29;20289;-70
2023/01/20 06:33:30;;;;;;;10.85;9.30;;;3.30;99.90;;;;;;4935047;29;20295;-71
2023/01/20 06:35:57;;;;;;;11.23;10.02;;;2.90;99.90;;;;;;4933882;29;20222;-71
2023/01/20 06:38:29;;;;;;;11.48;10.38;;;2.50;99.90;;;;;;4929828;29;20219;-72
2023/01/20 06:40:57;;;;;;;11.45;10.35;;;2.20;99.90;;;;;;4932514;29;20201;-70
2023/01/20 06:43:24;;;;;;;11.48;9.45;;;2.00;99.90;;;;;;4936027;29;20229;-71
2023/01/20 06:45:51;;;;;;;12.68;11.15;;;1.80;99.90;;;;;;4934916;29;20225;-70
2023/01/20 06:48:18;;;;;;;12.43;11.20;;;1.60;99.90;;;;;;4935778;29;20197;-72
2023/01/20 06:50:45;;;;;;;12.98;11.68;;;1.50;99.90;;;;;;4932412;29;20289;-71
2023/01/20 06:53:12;;;;;;;13.45;12.07;;;1.30;99.90;;;;;;4934450;29;20207;-70
2023/01/20 06:55:41;;;;;;;13.55;12.13;;;1.20;99.90;;;;;;4924455;29;20216;-84
2023/01/20 06:58:08;;;;;;;13.50;12.13;;;1.10;99.90;;;;;;4931102;29;20280;-68
2023/01/20 07:00:34;;;;;;;14.05;12.23;;;1.10;99.90;;;;;;4934404;29;20670;-69
2023/01/20 07:03:02;;;;;;;12.75;11.45;;;1.00;99.90;;;;;;4934614;29;20193;-68
2023/01/20 07:05:28;;;;;;;13.32;12.02;;;1.00;99.90;;;;;;4933705;29;20766;-69
2023/01/20 07:07:55;;;;;;;14.43;12.90;;;1.00;99.90;;;;;;4934254;29;20284;-70
2023/01/20 07:10:22;;;;;;;13.27;11.88;;;1.00;99.90;;;;;;4932319;29;20212;-70
2023/01/20 07:12:51;;;;;;;15.85;11.68;;;1.00;99.90;;;;;;4916528;29;20296;-69
2023/01/20 07:15:17;;;;;;;14.43;12.95;;;1.00;99.90;;;;;;4924235;29;20236;-70
2023/01/20 07:17:45;;;;;;;12.60;11.30;;;1.00;99.90;;;;;;4935183;29;20351;-70
2023/01/20 07:20:12;;;;;;;13.63;12.32;;;1.00;99.90;;;;;;4934064;29;20221;-70
2023/01/20 07:22:39;;;;;;;13.52;12.05;;;1.00;99.90;;;;;;4935448;29;20209;-69
2023/01/20 07:25:07;;;;;;;13.85;12.40;;;1.00;99.90;;;;;;4927305;29;20610;-70
2023/01/20 07:27:34;;;;;;;14.48;12.98;;;1.00;99.90;;;;;;4933569;29;20308;-70
2023/01/20 07:30:02;;;;;;;13.63;12.25;;;1.00;99.90;;;;;;4934243;29;20208;-69
2023/01/20 07:32:30;;;;;;;13.35;11.95;;;1.00;99.90;;;;;;4935131;29;20655;-69
2023/01/20 07:34:57;;;;;;;14.32;12.90;;;1.00;99.90;;;;;;4933221;29;20217;-70
2023/01/20 07:37:24;;;;;;;14.88;13.38;;;1.00;99.90;;;;;;4934232;29;20202;-70
2023/01/20 07:39:51;;;;;;;15.80;13.98;;;1.00;99.90;;;;;;4933310;29;20194;-70
2023/01/20 07:42:18;;;;;;;13.57;12.38;;;1.10;99.90;;;;;;4916151;29;20216;-71
2023/01/20 07:44:45;;;;;;;13.82;12.30;;;1.10;99.90;;;;;;4921951;29;20233;-69
2023/01/20 07:47:13;;;;;;;14.25;12.63;;;1.20;99.90;;;;;;4934493;29;20203;-69
2023/01/20 07:49:40;;;;;;;14.82;13.32;;;1.20;99.90;;;;;;4933655;29;20198;-70
2023/01/20 07:52:07;;;;;;;14.13;12.65;;;1.20;99.90;;;;;;4933005;29;20574;-69
2023/01/20 07:54:34;;;;;;;14.30;12.90;;;1.30;99.90;;;;;;4928584;29;20913;-69
2023/01/20 07:57:01;;;;;;;14.05;11.73;;;1.30;99.90;;;;;;4934460;29;20205;-70
2023/01/20 07:59:28;;;;;;;12.15;11.00;;;1.30;99.90;;;;;;4933642;29;20332;-69
2023/01/20 08:01:56;;;;;;;15.90;12.73;;;1.30;99.90;;;;;;4934484;29;20239;-69
2023/01/20 08:04:24;;;;;;;13.50;12.13;;;1.40;99.90;;;;;;4933309;29;20244;-69
2023/01/20 08:06:51;;;;;;;12.77;11.48;;;1.30;99.90;;;;;;4933217;29;20202;-69
2023/01/20 08:09:18;;;;;;;12.15;10.95;;;1.40;99.90;;;;;;4930846;29;20205;-70
2023/01/20 08:11:45;;;;;;;13.40;12.10;;;1.40;99.90;;;;;;4934472;29;20611;-70
2023/01/20 08:14:12;;;;;;;10.68;9.55;;;1.40;99.90;;;;;;4933255;29;20233;-70
2023/01/20 08:16:39;;;;;;;11.68;10.48;;;1.40;99.90;;;;;;4933738;29;20254;-69
2023/01/20 08:19:06;;;;;;;10.60;9.50;;;1.40;99.90;;;;;;4933784;29;20653;-70
2023/01/20 08:21:35;;;;;;;11.45;10.25;;;1.30;99.90;;;;;;4931160;29;20690;-70
2023/01/20 08:24:05;;;;;;;12.18;10.32;;;1.30;99.90;;;;;;4934128;29;20230;-70
2023/01/20 08:26:33;;;;;;;12.05;10.82;;;1.30;99.90;;;;;;4931328;29;20208;-70
2023/01/20 08:29:02;;;;;;;13.23;11.90;;;1.20;99.90;;;;;;4934250;29;20201;-70
2023/01/20 08:31:30;;;;;;;13.90;11.50;;;1.20;99.90;;;;;;4931744;28;20674;-70
2023/01/20 08:33:58;;;;;;;14.38;11.27;;;1.30;99.90;;;;;;4932172;29;20569;-70
2023/01/20 08:36:27;;;;;;;11.82;10.60;;;1.30;99.90;;;;;;4933738;29;20292;-70
2023/01/20 08:38:57;;;;;;;11.05;10.00;;;1.30;99.90;;;;;;4929568;29;20722;-70
2023/01/20 08:41:26;;;;;;;11.48;10.38;;;1.40;99.90;;;;;;4933849;29;20208;-70
2023/01/20 08:43:54;;;;;;;9.65;8.75;;;1.40;99.90;;;;;;4932478;29;20252;-70
2023/01/20 08:46:22;;;;;;;10.18;9.10;;;1.40;99.90;;;;;;4933627;29;20294;-71
2023/01/20 08:48:49;;;;;;;11.15;10.05;;;1.50;99.90;;;;;;4916316;29;20244;-70
2023/01/20 08:51:18;;;;;;;10.40;9.30;;;1.60;99.90;;;;;;4933884;29;20555;-70
2023/01/20 08:53:46;;;;;;;10.20;9.25;;;1.80;99.90;;;;;;4930981;29;20305;-70
2023/01/20 08:56:14;;;;;;;9.82;9.02;;;1.90;99.90;;;;;;4933307;29;20596;-70
2023/01/20 08:58:41;;;;;;;9.70;8.80;;;2.00;99.90;;;;;;4932821;29;20204;-70
2023/01/20 09:01:09;;;;;;;10.30;9.32;;;2.10;99.90;;;;;;4933487;29;20327;-70
2023/01/20 09:03:36;;;;;;;10.32;9.43;;;2.20;99.90;;;;;;4932903;29;20664;-69
2023/01/20 09:06:05;;;;;;;9.48;8.63;;;2.20;99.90;;;;;;4933118;29;20659;-70
2023/01/20 09:08:33;;;;;;;10.48;9.48;;;2.10;99.90;;;;;;4931176;29;20203;-69
2023/01/20 09:11:04;;;;;;;9.95;8.75;;;2.00;99.90;;;;;;4932725;29;20206;-69
2023/01/20 09:13:33;;;;;;;11.65;9.35;;;2.00;99.90;;;;;;4931288;29;20312;-69
2023/01/20 09:16:00;;;;;;;10.90;9.80;;;2.00;99.90;;;;;;4933616;29;20222;-69
2023/01/20 09:18:27;;;;;;;10.07;9.18;;;2.10;99.90;;;;;;4932206;29;20198;-69
2023/01/20 09:20:54;;;;;;;9.43;8.50;;;2.30;99.90;;;;;;4931203;29;20687;-70
2023/01/20 09:23:21;;;;;;;9.85;8.85;;;2.40;99.90;;;;;;4923891;29;20191;-70
2023/01/20 09:25:48;;;;;;;13.38;9.30;;;2.50;99.90;;;;;;4918089;29;20239;-70
2023/01/20 09:28:16;;;;;;;10.88;9.55;;;2.60;99.90;;;;;;4928420;29;20650;-70
2023/01/20 09:30:44;;;;;;;9.70;8.77;;;2.70;99.90;;;;;;4937749;29;20212;-70
2023/01/20 09:33:12;;;;;;;9.20;8.30;;;3.00;99.90;;;;;;4936212;29;20232;-70
2023/01/20 09:35:39;;;;;;;8.50;7.60;;;3.20;99.90;;;;;;4937377;29;20229;-70
2023/01/20 09:43:55;;;;;;;11.52;8.63;;;4.00;99.90;;;;;;4936061;29;20201;-70
2023/01/20 09:46:36;;;;;;;8.10;7.30;;;4.10;99.90;;;;;;4936863;29;20665;-70
2023/01/20 09:55:00;;;;;;;8.90;8.10;;;4.90;99.90;;;;;;4935693;29;20217;-70
2023/01/20 09:57:31;;;;;;;8.95;8.05;;;5.70;99.90;;;;;;4935468;29;20260;-70
2023/01/20 10:00:05;;;;;;;8.68;7.88;;;6.40;99.90;;;;;;4926215;29;20197;-70
2023/01/20 10:02:36;;;;;;;7.93;7.18;;;7.10;99.90;;;;;;4932005;29;20263;-70
2023/01/20 10:05:12;;;;;;;7.10;6.40;;;7.40;99.90;;;;;;4920456;29;20228;-70
2023/01/20 10:07:44;;;;;;;7.53;6.82;;;7.70;99.90;;;;;;4935691;29;20214;-70
2023/01/20 10:10:18;;;;;;;7.70;7.00;;;7.80;99.90;;;;;;4932183;29;20223;-71
2023/01/20 10:12:48;;;;;;;7.88;7.25;;;7.90;99.90;;;;;;4935717;29;20295;-70
2023/01/20 10:15:19;;;;;;;8.98;8.10;;;8.20;99.90;;;;;;4935254;29;20651;-70
2023/01/20 10:17:53;;;;;;;9.23;8.32;;;8.20;99.90;;;;;;4936330;29;20254;-70
2023/01/20 10:20:28;;;;;;;8.65;7.90;;;8.10;99.90;;;;;;4931643;29;20240;-71
2023/01/20 10:23:01;;;;;;;9.25;8.23;;;8.10;99.90;;;;;;4936254;29;20204;-71
2023/01/20 10:25:33;;;;;;;8.07;7.28;;;8.40;99.90;;;;;;4934948;29;20228;-71
2023/01/20 10:28:09;;;;;;;7.80;7.07;;;8.90;99.90;;;;;;4935743;29;20630;-70
2023/01/20 10:30:37;;;;;;;7.40;6.78;;;9.30;99.90;;;;;;4935745;29;20196;-70
2023/01/20 10:33:10;;;;;;;7.72;6.97;;;9.50;99.90;;;;;;4934567;29;20236;-71
2023/01/20 10:35:41;;;;;;;8.02;7.32;;;9.90;99.90;;;;;;4935336;29;20570;-70
2023/01/20 10:38:18;;;;;;;7.13;6.53;;;9.90;99.90;;;;;;4935896;29;20669;-70
2023/01/20 10:40:51;;;;;;;6.78;6.18;;;9.80;99.90;;;;;;4923018;29;20204;-70
2023/01/20 10:43:20;;;;;;;7.93;7.22;;;9.90;99.90;;;;;;4936265;29;20558;-70
2023/01/20 10:46:09;;;;;;;7.20;6.60;;;10.10;99.90;;;;;;4934737;29;20260;-70
2023/01/20 10:48:57;;;;;;;7.15;6.50;;;10.30;99.90;;;;;;4935206;29;20240;-70
2023/01/20 10:51:33;;;;;;;7.13;6.53;;;10.30;99.90;;;;;;4935191;29;20205;-70
2023/01/20 10:54:11;;;;;;;8.20;7.50;;;10.40;99.90;;;;;;4936267;29;20220;-71
2023/01/20 10:56:44;;;;;;;7.05;6.45;;;10.70;99.90;;;;;;4932816;29;20209;-70
2023/01/20 10:59:17;;;;;;;7.95;7.13;;;10.70;99.90;;;;;;4935796;29;20216;-70
2023/01/20 11:01:49;;;;;;;6.85;6.20;;;10.70;99.90;;;;;;4923981;29;20205;-71
2023/01/20 11:04:19;;;;;;;7.30;6.55;;;10.80;99.90;;;;;;4934055;29;20303;-70
2023/01/20 11:06:51;;;;;;;8.10;7.40;;;10.80;99.90;;;;;;4934190;29;20263;-70
2023/01/20 11:09:26;;;;;;;7.45;6.82;;;10.40;99.90;;;;;;4935463;29;20263;-70
2023/01/20 11:11:53;;;;;;;7.80;7.00;;;10.00;99.90;;;;;;4928569;29;20196;-70
2023/01/20 11:14:20;;;;;;;7.30;6.70;;;10.00;99.90;;;;;;4935492;29;20221;-71
2023/01/20 11:16:51;;;;;;;7.20;6.57;;;10.20;99.90;;;;;;4933973;29;20221;-71
2023/01/20 11:19:20;;;;;;;7.13;6.53;;;10.50;99.90;;;;;;4935120;29;20753;-71
2023/01/20 11:21:48;;;;;;;7.47;6.45;;;10.70;99.90;;;;;;4934065;29;20205;-71
2023/01/20 11:24:34;;;;;;;7.10;6.50;;;11.00;99.90;;;;;;4935190;29;20272;-71
2023/01/20 11:27:06;;;;;;;7.73;5.80;;;11.30;99.90;;;;;;4926087;29;20463;-71
2023/01/20 11:29:39;;;;;;;6.50;6.00;;;11.60;99.90;;;;;;4916385;29;21012;-71
2023/01/20 11:32:27;;;;;;;7.23;6.60;;;11.60;99.90;;;;;;4932195;29;20563;-72
2023/01/20 11:34:55;;;;;;;6.87;6.27;;;11.60;99.90;;;;;;4935111;29;20965;-72
2023/01/20 11:37:25;;;;;;;7.07;6.43;;;11.60;99.90;;;;;;4933553;29;20461;-72
2023/01/20 11:40:04;;;;;;;8.05;6.90;;;11.50;99.20;;;;;;4933875;29;20193;-72
2023/01/20 11:42:42;;;;;;;8.80;7.03;;;10.50;99.90;;;;;;4933835;29;20200;-71
2023/01/20 11:45:24;;;;;;;7.63;6.85;;;9.70;99.90;;;;;;4933734;29;20763;-71
2023/01/20 11:48:01;;;;;;;7.90;7.20;;;9.30;99.90;;;;;;4915511;29;20205;-73
2023/01/20 11:50:41;;;;;;;8.32;7.53;;;9.20;99.90;;;;;;4920609;29;20205;-71
2023/01/20 11:53:18;;;;;;;7.38;6.70;;;9.00;99.90;;;;;;4934144;29;20479;-73
2023/01/20 11:55:49;;;;;;;7.38;6.68;;;8.90;99.90;;;;;;4930086;29;20208;-72
2023/01/20 11:58:18;;;;;;;7.00;6.47;;;9.00;99.90;;;;;;4932814;29;20201;-71
2023/01/20 12:00:46;;;;;;;6.80;6.15;;;9.30;99.90;;;;;;4933858;29;20609;-71
2023/01/20 12:03:47;;;;;;;8.52;7.15;;;9.40;99.90;;;;;;4932422;29;20213;-73
2023/01/20 12:06:20;;;;;;;7.70;6.60;;;9.20;99.90;;;;;;4933064;29;20271;-71
2023/01/20 12:08:50;;;;;;;6.95;6.35;;;8.90;99.90;;;;;;4934703;29;20205;-71
2023/01/20 12:11:23;;;;;;;7.70;6.45;;;8.50;99.90;;;;;;4933320;29;20306;-70
2023/01/20 12:14:21;;;;;;;8.48;6.82;;;8.10;99.90;;;;;;4929734;29;20223;-71
2023/01/20 12:17:00;;;;;;;7.75;6.20;;;8.20;99.90;;;;;;4929996;29;20680;-71
2023/01/20 12:19:35;;;;;;;6.85;5.70;;;8.40;99.90;;;;;;4933329;29;20208;-71
2023/01/20 12:22:11;;;;;;;6.32;5.80;;;8.30;99.90;;;;;;4930556;29;20244;-71
2023/01/20 12:25:08;;;;;;;6.70;5.25;;;8.60;99.90;;;;;;4934124;29;20697;-71
2023/01/20 12:27:41;;;;;;;7.25;6.10;;;8.80;99.90;;;;;;4930026;29;20209;-71
2023/01/20 12:30:34;;;;;;;7.05;6.35;;;8.50;99.90;;;;;;4915501;29;20201;-71
2023/01/20 12:33:02;;;;;;;7.00;6.35;;;8.20;99.90;;;;;;4915067;29;20206;-72
2023/01/20 12:35:33;;;;;;;6.22;5.68;;;8.20;99.90;;;;;;4916178;29;20223;-73
2023/01/20 12:38:06;;;;;;;6.57;5.40;;;8.20;99.90;;;;;;4918176;29;20200;-73
2023/01/20 12:40:40;;;;;;;6.45;5.18;;;8.20;99.90;;;;;;4922702;29;20552;-73
2023/01/20 12:43:25;;;;;;;6.78;5.43;;;8.20;99.90;;;;;;4920842;29;20298;-72
2023/01/20 12:46:19;;;;;;;8.65;6.50;;;8.10;99.90;;;;;;4924453;29;20322;-72
2023/01/20 12:49:00;;;;;;;7.30;6.30;;;7.60;99.90;;;;;;4933902;29;20730;-72
2023/01/20 12:51:38;;;;;;;7.03;5.90;;;7.00;99.90;;;;;;4924893;29;20659;-72
2023/01/20 12:54:30;;;;;;;5.80;5.30;;;6.50;99.90;;;;;;4926506;29;20224;-72
2023/01/20 12:57:07;;;;;;;7.03;5.40;;;6.00;99.90;;;;;;4931998;29;20273;-72
2023/01/20 12:59:46;;;;;;;7.82;5.80;;;5.70;99.90;;;;;;4930010;29;20200;-72
2023/01/20 13:02:51;;;;;;;7.75;5.70;;;6.20;99.90;;;;;;4918636;29;20203;-72
2023/01/20 13:05:39;;;;;;;5.00;4.50;;;6.60;99.90;;;;;;4914890;29;20221;-72
2023/01/20 13:08:14;;;;;;;6.15;5.55;;;6.70;99.90;;;;;;4922834;29;20249;-72
2023/01/20 13:10:59;;;;;;;6.72;6.07;;;7.00;99.90;;;;;;4930380;29;20190;-72
2023/01/20 13:13:39;;;;;;;6.03;5.32;;;7.20;99.90;;;;;;4925260;29;20317;-72